Terminal Aerodrome Forecast
Issued by NWS

Home | Current Version | Previous Version | Text Only | Print | Product List | Glossary On
Versions: 1 2 3 4 5 6 7 8 9 10 11 12 13 14
000
FTUS46 KSTO 070527
TAFMHR
TAF
KMHR 070527Z 0706/0806 20009KT P6SM FEW250
     FM070800 16009KT P6SM SCT250
     FM071900 22008KT P6SM BKN250
     FM080200 22012G17KT P6SM SCT250=

USA.gov is the U.S. government's official web portal to all federal, state and local government web resources and services.